createdAt,value
2024-01-10T00:01:22.351Z,11.30
2024-01-10T00:03:50.942Z,8.00
2024-01-10T00:06:19.492Z,8.00
2024-01-10T00:08:47.779Z,5.60
2024-01-10T00:11:16.229Z,8.40
2024-01-10T00:13:44.543Z,7.40
2024-01-10T00:16:16.628Z,11.40
2024-01-10T00:18:44.899Z,8.00
2024-01-10T00:21:13.243Z,11.70
2024-01-10T00:23:41.414Z,13.30
2024-01-10T00:26:09.546Z,11.20
2024-01-10T00:28:37.792Z,8.30
2024-01-10T00:31:06.073Z,9.30
2024-01-10T00:33:34.610Z,9.30
2024-01-10T00:36:03.010Z,2.90
2024-01-10T00:38:31.269Z,11.70
2024-01-10T00:40:59.510Z,7.30
2024-01-10T00:43:27.929Z,9.70
2024-01-10T00:45:56.206Z,6.40
2024-01-10T00:48:24.478Z,14.60
2024-01-10T00:50:52.692Z,9.90
2024-01-10T00:53:20.964Z,9.80
2024-01-10T00:55:49.567Z,8.10
2024-01-10T00:58:18.181Z,15.90
2024-01-10T01:00:46.415Z,7.00
2024-01-10T01:03:14.737Z,13.30
2024-01-10T01:05:43.105Z,11.70
2024-01-10T01:08:11.329Z,9.10
2024-01-10T01:10:39.707Z,12.10
2024-01-10T01:13:08.548Z,12.50
2024-01-10T01:15:36.664Z,7.50
2024-01-10T01:18:05.346Z,9.90
2024-01-10T01:20:34.296Z,11.40
2024-01-10T01:23:02.717Z,7.90
2024-01-10T01:25:30.900Z,12.30
2024-01-10T01:27:59.127Z,9.70
2024-01-10T01:30:27.364Z,9.10
2024-01-10T01:32:55.623Z,12.20
2024-01-10T01:35:25.064Z,10.00
2024-01-10T01:37:53.423Z,8.50
2024-01-10T01:40:22.034Z,11.00
2024-01-10T01:42:50.227Z,8.80
2024-01-10T01:45:18.482Z,6.40
2024-01-10T01:47:46.907Z,8.40
2024-01-10T01:50:15.407Z,5.70
2024-01-10T01:52:45.165Z,8.90
2024-01-10T01:55:13.468Z,13.00
2024-01-10T01:57:41.635Z,10.70
2024-01-10T02:00:10.842Z,9.40
2024-01-10T02:02:39.201Z,12.70
2024-01-10T02:05:07.550Z,7.80
2024-01-10T02:07:36.654Z,8.00
2024-01-10T02:10:05.801Z,9.40
2024-01-10T02:12:33.950Z,8.40
2024-01-10T02:15:02.183Z,14.30
2024-01-10T02:17:30.502Z,9.30
2024-01-10T02:20:17.095Z,7.00
2024-01-10T02:22:45.919Z,6.40
2024-01-10T02:25:14.994Z,9.90
2024-01-10T02:27:43.361Z,9.70
2024-01-10T02:30:12.628Z,6.80
2024-01-10T02:32:41.343Z,10.90
2024-01-10T02:35:09.880Z,8.50
2024-01-10T02:37:38.290Z,12.40
2024-01-10T02:40:07.965Z,10.60
2024-01-10T02:42:36.605Z,10.00
2024-01-10T02:45:06.248Z,16.60
2024-01-10T02:47:34.502Z,6.40
2024-01-10T02:50:02.945Z,9.20
2024-01-10T02:52:31.944Z,10.40
2024-01-10T02:55:00.353Z,6.10
2024-01-10T02:57:28.870Z,5.70
2024-01-10T02:59:57.039Z,5.70
2024-01-10T03:02:25.534Z,7.80
2024-01-10T03:04:53.938Z,9.00
2024-01-10T03:07:22.285Z,9.80
2024-01-10T03:09:50.754Z,12.90
2024-01-10T03:12:18.924Z,10.90
2024-01-10T03:14:47.099Z,7.50
2024-01-10T03:17:15.626Z,10.10
2024-01-10T03:19:45.293Z,6.60
2024-01-10T03:22:13.677Z,10.00
2024-01-10T03:24:41.937Z,4.50
2024-01-10T03:27:10.106Z,2.30
2024-01-10T03:29:38.288Z,6.20
2024-01-10T03:32:07.929Z,11.80
2024-01-10T03:34:36.693Z,8.40
2024-01-10T03:37:05.356Z,13.60
2024-01-10T03:39:33.674Z,10.30
2024-01-10T03:42:01.808Z,9.90
2024-01-10T03:44:30.056Z,9.10
2024-01-10T03:46:58.414Z,7.70
2024-01-10T03:49:26.749Z,6.30
2024-01-10T03:51:55.010Z,6.80
2024-01-10T03:54:23.286Z,10.00
2024-01-10T03:56:51.557Z,6.80
2024-01-10T03:59:19.702Z,7.30
2024-01-10T04:01:47.912Z,11.10
2024-01-10T04:04:16.380Z,12.30
2024-01-10T04:06:44.555Z,11.20
2024-01-10T04:09:12.725Z,10.00
2024-01-10T04:11:40.942Z,7.90
2024-01-10T04:14:13.006Z,12.60
2024-01-10T04:16:43.933Z,8.80
2024-01-10T04:19:12.452Z,6.80
2024-01-10T04:21:40.857Z,12.80
2024-01-10T04:24:09.030Z,10.80
2024-01-10T04:26:37.314Z,8.70
2024-01-10T04:29:05.621Z,10.80
2024-01-10T04:31:33.683Z,13.70
2024-01-10T04:34:02.002Z,14.10
2024-01-10T04:36:30.315Z,10.30
2024-01-10T04:38:58.484Z,7.90
2024-01-10T04:41:26.926Z,9.90
2024-01-10T04:43:55.285Z,10.90
2024-01-10T04:46:23.635Z,9.30
2024-01-10T04:48:51.889Z,13.40
2024-01-10T04:51:20.167Z,12.60
2024-01-10T04:53:48.334Z,8.30
2024-01-10T04:56:16.661Z,4.20
2024-01-10T04:58:45.111Z,11.00
2024-01-10T05:01:13.250Z,9.40
2024-01-10T05:03:41.991Z,9.00
2024-01-10T05:06:10.568Z,10.10
2024-01-10T05:08:38.910Z,11.90
2024-01-10T05:11:07.260Z,7.60
2024-01-10T05:13:35.638Z,11.70
2024-01-10T05:16:03.942Z,13.60
2024-01-10T05:18:32.149Z,17.20
2024-01-10T05:21:00.846Z,14.30
2024-01-10T05:23:29.071Z,10.50
2024-01-10T05:25:57.410Z,14.60
2024-01-10T05:28:25.936Z,8.00
2024-01-10T05:30:55.376Z,16.90
2024-01-10T05:33:23.775Z,14.40
2024-01-10T05:35:52.100Z,13.10
2024-01-10T05:38:20.396Z,11.50
2024-01-10T05:40:48.778Z,9.40
2024-01-10T05:43:17.115Z,13.40
2024-01-10T05:45:45.232Z,8.50
2024-01-10T05:48:13.499Z,10.00
2024-01-10T05:50:41.880Z,13.30
2024-01-10T05:53:11.823Z,14.40
2024-01-10T05:55:40.155Z,12.40
2024-01-10T05:58:10.904Z,11.20
2024-01-10T06:00:39.216Z,9.40
2024-01-10T06:03:09.121Z,12.60
2024-01-10T06:05:37.390Z,12.90
2024-01-10T06:08:07.119Z,11.20
2024-01-10T06:10:37.937Z,12.40
2024-01-10T06:13:06.749Z,12.50
2024-01-10T06:15:35.023Z,16.10
2024-01-10T06:18:03.344Z,9.80
2024-01-10T06:20:33.345Z,13.90
2024-01-10T06:23:01.609Z,14.20
2024-01-10T06:25:29.862Z,14.00
2024-01-10T06:27:58.146Z,17.20
2024-01-10T06:30:26.462Z,14.90
2024-01-10T06:32:54.727Z,12.70
2024-01-10T06:35:23.042Z,13.40
2024-01-10T06:37:51.502Z,19.60
2024-01-10T06:40:20.037Z,15.50
2024-01-10T06:42:48.928Z,23.90
2024-01-10T06:45:17.132Z,15.80
2024-01-10T06:47:45.279Z,18.00
2024-01-10T06:50:14.072Z,15.50
2024-01-10T06:52:42.430Z,14.30
2024-01-10T06:55:11.216Z,14.80
2024-01-10T06:57:39.487Z,14.60
2024-01-10T07:00:12.514Z,16.60
2024-01-10T07:02:41.090Z,12.90
2024-01-10T07:05:11.043Z,15.70
2024-01-10T07:07:39.452Z,15.10
2024-01-10T07:10:08.467Z,21.20
2024-01-10T07:12:36.662Z,24.20
2024-01-10T07:15:06.057Z,20.60
2024-01-10T07:17:34.693Z,19.60
2024-01-10T07:20:04.735Z,18.90
2024-01-10T07:22:33.202Z,19.10
2024-01-10T07:25:01.591Z,23.40
2024-01-10T07:27:29.963Z,15.60
2024-01-10T07:29:59.065Z,19.30
2024-01-10T07:32:27.658Z,13.50
2024-01-10T07:34:55.869Z,15.30
2024-01-10T07:37:24.086Z,22.20
2024-01-10T07:39:52.356Z,20.40
2024-01-10T07:42:20.623Z,19.50
2024-01-10T07:44:50.302Z,16.60
2024-01-10T07:47:19.989Z,20.40
2024-01-10T07:49:48.312Z,25.60
2024-01-10T07:52:17.551Z,12.80
2024-01-10T07:54:45.830Z,19.70
2024-01-10T07:57:13.993Z,23.50
2024-01-10T07:59:42.237Z,19.00
2024-01-10T08:02:11.889Z,26.50
2024-01-10T08:04:40.318Z,26.60
2024-01-10T08:07:09.412Z,20.30
2024-01-10T08:09:37.937Z,26.60
2024-01-10T08:12:06.618Z,32.10
2024-01-10T08:14:34.852Z,19.70
2024-01-10T08:17:03.289Z,25.50
2024-01-10T08:19:31.670Z,22.80
2024-01-10T08:21:59.921Z,19.60
2024-01-10T08:24:28.164Z,12.80
2024-01-10T08:26:56.437Z,10.80
2024-01-10T08:29:28.480Z,7.00
2024-01-10T08:31:56.935Z,12.00
2024-01-10T08:34:25.951Z,9.80
2024-01-10T08:36:54.558Z,7.70
2024-01-10T08:39:23.561Z,6.20
2024-01-10T08:41:51.924Z,9.60
2024-01-10T08:44:20.238Z,13.20
2024-01-10T08:46:49.643Z,9.80
2024-01-10T08:49:18.940Z,9.90
2024-01-10T08:51:47.951Z,7.10
2024-01-10T08:54:18.417Z,9.70
2024-01-10T08:56:47.182Z,11.00
2024-01-10T08:59:15.809Z,7.30
2024-01-10T09:01:44.112Z,13.50
2024-01-10T09:04:12.384Z,17.90
2024-01-10T09:06:40.824Z,13.10
2024-01-10T09:09:09.095Z,15.30
2024-01-10T09:11:40.142Z,14.30
2024-01-10T09:14:10.594Z,13.30
2024-01-10T09:16:40.481Z,7.00
2024-01-10T09:19:11.845Z,15.30
2024-01-10T09:21:40.392Z,12.20
2024-01-10T09:24:21.685Z,14.80
2024-01-10T09:26:57.542Z,13.50
2024-01-10T09:29:27.689Z,16.60
2024-01-10T09:31:56.201Z,9.00
2024-01-10T09:34:24.788Z,9.10
2024-01-10T09:36:54.114Z,6.30
2024-01-10T09:39:22.494Z,10.10
2024-01-10T09:41:52.766Z,7.50
2024-01-10T09:44:22.872Z,11.10
2024-01-10T09:46:53.315Z,5.30
2024-01-10T09:49:24.958Z,7.50
2024-01-10T09:51:58.138Z,6.20
2024-01-10T09:54:26.880Z,13.50
2024-01-10T09:56:55.009Z,7.40
2024-01-10T09:59:23.143Z,4.90
2024-01-10T10:01:53.103Z,5.80
2024-01-10T10:04:21.708Z,11.00
2024-01-10T10:06:59.954Z,6.70
2024-01-10T10:09:28.724Z,11.60
2024-01-10T10:11:57.106Z,7.80
2024-01-10T10:14:27.584Z,4.50
2024-01-10T10:16:55.885Z,10.20
2024-01-10T10:19:34.212Z,6.00
2024-01-10T10:22:12.216Z,5.80
2024-01-10T10:24:40.593Z,7.70
2024-01-10T10:27:14.476Z,7.80
2024-01-10T10:29:44.129Z,7.70
2024-01-10T10:32:13.785Z,6.70
2024-01-10T10:34:42.059Z,7.30
2024-01-10T10:37:10.223Z,8.30
2024-01-10T10:39:39.220Z,7.10
2024-01-10T10:42:07.781Z,9.80
2024-01-10T10:44:37.512Z,5.60
2024-01-10T10:47:12.155Z,9.20
2024-01-10T10:49:49.481Z,5.50
2024-01-10T10:52:17.749Z,10.10
2024-01-10T10:54:45.997Z,6.00
2024-01-10T10:57:15.243Z,6.10
2024-01-10T10:59:43.348Z,5.00
2024-01-10T11:02:12.391Z,9.20
2024-01-10T11:04:41.717Z,8.50
2024-01-10T11:07:10.353Z,7.90
2024-01-10T11:09:39.199Z,8.30
2024-01-10T11:12:45.132Z,9.50
2024-01-10T11:15:34.892Z,6.10
2024-01-10T11:18:47.686Z,7.40
2024-01-10T11:21:26.670Z,7.40
2024-01-10T11:24:00.065Z,3.80
2024-01-10T11:26:28.411Z,9.60
2024-01-10T11:28:59.039Z,9.40
2024-01-10T11:31:32.028Z,10.40
2024-01-10T11:34:04.860Z,11.70
2024-01-10T11:36:33.895Z,12.90
2024-01-10T11:39:05.998Z,5.90
2024-01-10T11:41:39.857Z,5.80
2024-01-10T11:44:26.658Z,12.50
2024-01-10T11:46:56.243Z,5.90
2024-01-10T11:49:25.687Z,7.60
2024-01-10T11:51:59.457Z,7.10
2024-01-10T11:54:44.909Z,4.40
2024-01-10T11:57:33.645Z,11.40
2024-01-10T12:00:02.756Z,9.50
2024-01-10T12:02:34.246Z,7.70
2024-01-10T12:05:03.251Z,10.70
2024-01-10T12:07:32.001Z,9.60
2024-01-10T12:10:00.300Z,15.90
2024-01-10T12:12:28.421Z,5.10
2024-01-10T12:14:56.903Z,6.10
2024-01-10T12:17:30.410Z,9.20
2024-01-10T12:19:58.645Z,9.60
2024-01-10T12:22:26.749Z,6.50
2024-01-10T12:24:54.975Z,6.80
2024-01-10T12:27:24.166Z,10.30
2024-01-10T12:29:53.864Z,8.20
2024-01-10T12:32:25.691Z,10.70
2024-01-10T12:35:06.285Z,6.20
2024-01-10T12:37:36.151Z,10.50
2024-01-10T12:40:11.112Z,7.50
2024-01-10T12:42:39.816Z,7.00
2024-01-10T12:45:22.706Z,12.00
2024-01-10T12:47:51.009Z,6.50
2024-01-10T12:50:19.374Z,5.30
2024-01-10T12:52:48.170Z,9.50
2024-01-10T12:55:16.298Z,10.50
2024-01-10T12:57:45.180Z,5.70
2024-01-10T13:00:15.841Z,8.00
2024-01-10T13:02:47.984Z,10.30
2024-01-10T13:05:27.248Z,5.90
2024-01-10T13:07:55.484Z,10.90
2024-01-10T13:10:23.664Z,8.80
2024-01-10T13:12:51.777Z,8.70
2024-01-10T13:15:19.986Z,8.90
2024-01-10T13:17:48.254Z,8.40
2024-01-10T13:20:16.652Z,6.80
2024-01-10T13:22:44.980Z,7.00
2024-01-10T13:25:14.165Z,11.30
2024-01-10T13:27:42.237Z,5.80
2024-01-10T13:30:13.847Z,7.00
2024-01-10T13:32:42.132Z,6.40
2024-01-10T13:35:10.444Z,6.40
2024-01-10T13:37:38.606Z,10.80
2024-01-10T13:40:13.867Z,6.20
2024-01-10T13:42:45.761Z,8.50
2024-01-10T13:45:14.133Z,7.30
2024-01-10T13:47:42.601Z,14.40
2024-01-10T13:50:11.151Z,8.70
2024-01-10T13:52:39.903Z,10.10
2024-01-10T13:55:09.299Z,9.60
2024-01-10T13:57:37.485Z,7.70
2024-01-10T14:00:08.314Z,10.10
2024-01-10T14:02:45.534Z,3.70
2024-01-10T14:05:14.330Z,7.20
2024-01-10T14:07:51.429Z,10.80
2024-01-10T14:10:20.305Z,7.50
2024-01-10T14:12:49.400Z,7.10
2024-01-10T14:15:18.089Z,5.00
2024-01-10T14:17:47.153Z,6.30
2024-01-10T14:20:15.652Z,7.00
2024-01-10T14:22:44.242Z,6.40
2024-01-10T14:25:12.678Z,8.50
2024-01-10T14:27:41.001Z,5.40
2024-01-10T14:30:10.123Z,4.00
2024-01-10T14:32:39.271Z,10.50
2024-01-10T14:35:09.028Z,9.80
2024-01-10T14:37:38.089Z,7.30
2024-01-10T14:40:08.006Z,5.80
2024-01-10T14:42:36.348Z,9.20
2024-01-10T14:45:05.383Z,4.30
2024-01-10T14:47:33.816Z,7.00
2024-01-10T14:50:02.572Z,6.00
2024-01-10T14:52:31.060Z,7.90
2024-01-10T14:54:59.300Z,5.20
2024-01-10T14:57:27.571Z,12.10
2024-01-10T14:59:55.724Z,19.30
2024-01-10T15:02:24.214Z,10.70
2024-01-10T15:04:52.624Z,9.50
2024-01-10T15:07:20.798Z,9.70
2024-01-10T15:09:49.160Z,12.30
2024-01-10T15:12:18.051Z,8.10
2024-01-10T15:14:46.320Z,12.60
2024-01-10T15:17:14.818Z,9.30
2024-01-10T15:19:43.399Z,10.80
2024-01-10T15:22:11.594Z,12.00
2024-01-10T15:24:40.365Z,10.40
2024-01-10T15:27:11.123Z,20.30
2024-01-10T15:29:40.336Z,15.50
2024-01-10T15:32:09.093Z,9.60
2024-01-10T15:34:37.513Z,13.80
2024-01-10T15:37:05.909Z,7.60
2024-01-10T15:39:34.121Z,15.00
2024-01-10T15:42:05.060Z,8.40
2024-01-10T15:44:33.327Z,15.90
2024-01-10T15:47:01.544Z,12.20
2024-01-10T15:49:30.727Z,11.60
2024-01-10T15:51:59.046Z,14.30
2024-01-10T15:54:27.556Z,11.90
2024-01-10T15:56:56.338Z,14.70
2024-01-10T15:59:24.727Z,19.10
2024-01-10T16:01:54.450Z,11.00
2024-01-10T16:04:22.720Z,12.50
2024-01-10T16:06:51.055Z,10.00
2024-01-10T16:09:19.277Z,14.80
2024-01-10T16:11:47.443Z,20.10
2024-01-10T16:14:15.738Z,7.50
2024-01-10T16:16:43.946Z,17.80
2024-01-10T16:19:13.375Z,11.30
2024-01-10T16:21:41.740Z,11.70
2024-01-10T16:24:11.061Z,15.00
2024-01-10T16:26:39.300Z,8.40
2024-01-10T16:29:08.151Z,10.30
2024-01-10T16:31:36.822Z,10.10
2024-01-10T16:34:05.156Z,17.80
2024-01-10T16:36:33.325Z,15.80
2024-01-10T16:39:01.616Z,11.30
2024-01-10T16:41:29.950Z,17.00
2024-01-10T16:43:58.301Z,15.70
2024-01-10T16:46:28.264Z,11.00
2024-01-10T16:48:56.494Z,17.70
2024-01-10T16:51:25.125Z,17.00
2024-01-10T16:53:53.598Z,8.20
2024-01-10T16:56:22.693Z,9.10
2024-01-10T16:58:51.612Z,23.00
2024-01-10T17:01:20.118Z,23.40
2024-01-10T17:03:48.450Z,7.80
2024-01-10T17:06:17.144Z,15.70
2024-01-10T17:08:45.607Z,10.10
2024-01-10T17:11:16.260Z,16.10
2024-01-10T17:13:46.227Z,23.90
2024-01-10T17:16:14.640Z,20.80
2024-01-10T17:18:42.859Z,4.40
2024-01-10T17:21:12.919Z,4.40
2024-01-10T17:23:41.184Z,13.10
2024-01-10T17:26:10.127Z,13.00
2024-01-10T17:28:38.772Z,21.80
2024-01-10T17:31:07.662Z,9.80
2024-01-10T17:33:36.092Z,12.90
2024-01-10T17:36:05.215Z,18.10
2024-01-10T17:38:34.248Z,22.20
2024-01-10T17:41:03.856Z,13.50
2024-01-10T17:43:32.248Z,10.80
2024-01-10T17:46:00.485Z,11.10
2024-01-10T17:48:29.051Z,21.00
2024-01-10T17:50:57.550Z,16.30
2024-01-10T17:53:26.293Z,16.40
2024-01-10T17:55:54.527Z,13.80
2024-01-10T17:58:22.782Z,13.80
2024-01-10T18:00:50.985Z,10.80
2024-01-10T18:03:19.249Z,15.60
2024-01-10T18:05:47.763Z,17.00
2024-01-10T18:08:16.121Z,15.40
2024-01-10T18:10:46.784Z,9.00
2024-01-10T18:13:16.517Z,15.30
2024-01-10T18:15:44.793Z,18.00
2024-01-10T18:18:13.088Z,14.40
2024-01-10T18:20:41.704Z,14.50
2024-01-10T18:23:10.070Z,17.20
2024-01-10T18:25:40.521Z,20.60
2024-01-10T18:28:09.170Z,16.20
2024-01-10T18:30:37.552Z,15.20
2024-01-10T18:33:06.830Z,13.00
2024-01-10T18:35:35.194Z,14.50
2024-01-10T18:38:05.659Z,8.30
2024-01-10T18:40:33.999Z,16.70
2024-01-10T18:43:02.485Z,10.80
2024-01-10T18:45:30.672Z,9.20
2024-01-10T18:47:59.429Z,19.70
2024-01-10T18:50:31.341Z,10.90
2024-01-10T18:53:02.839Z,11.00
2024-01-10T18:55:31.952Z,6.50
2024-01-10T18:58:00.117Z,9.30
2024-01-10T19:00:29.114Z,18.60
2024-01-10T19:02:59.341Z,23.60
2024-01-10T19:05:28.130Z,21.10
2024-01-10T19:07:56.654Z,11.50
2024-01-10T19:10:25.081Z,17.30
2024-01-10T19:12:53.172Z,12.80
2024-01-10T19:15:23.716Z,12.80
2024-01-10T19:17:52.051Z,11.20
2024-01-10T19:20:20.402Z,22.00
2024-01-10T19:22:48.814Z,13.70
2024-01-10T19:25:17.088Z,13.40
2024-01-10T19:27:45.372Z,29.50
2024-01-10T19:30:22.091Z,27.00
2024-01-10T19:32:52.071Z,19.40
2024-01-10T19:35:20.446Z,21.70
2024-01-10T19:37:48.711Z,19.10
2024-01-10T19:40:17.487Z,32.80
2024-01-10T19:42:45.670Z,21.70
2024-01-10T19:45:13.968Z,37.70
2024-01-10T19:47:42.443Z,35.40
2024-01-10T19:50:12.103Z,29.90
2024-01-10T19:52:40.576Z,26.30
2024-01-10T19:55:09.753Z,25.40
2024-01-10T19:57:38.806Z,28.80
2024-01-10T20:00:11.581Z,21.20
2024-01-10T20:02:40.990Z,23.60
2024-01-10T20:05:10.539Z,19.40
2024-01-10T20:07:38.960Z,26.30
2024-01-10T20:10:09.392Z,15.30
2024-01-10T20:12:37.658Z,19.80
2024-01-10T20:15:06.632Z,22.40
2024-01-10T20:17:35.558Z,22.10
2024-01-10T20:20:04.418Z,16.20
2024-01-10T20:22:32.808Z,14.00
2024-01-10T20:25:00.985Z,20.40
2024-01-10T20:27:29.258Z,28.90
2024-01-10T20:29:57.538Z,19.20
2024-01-10T20:32:25.915Z,26.30
2024-01-10T20:34:56.165Z,12.80
2024-01-10T20:37:25.020Z,15.20
2024-01-10T20:39:53.407Z,24.40
2024-01-10T20:42:21.692Z,23.00
2024-01-10T20:44:50.456Z,19.20
2024-01-10T20:47:28.445Z,15.30
2024-01-10T20:50:00.492Z,20.80
2024-01-10T20:52:28.840Z,24.20
2024-01-10T20:54:58.301Z,16.40
2024-01-10T20:57:27.102Z,14.70
2024-01-10T20:59:55.621Z,16.80
2024-01-10T21:02:24.661Z,13.70
2024-01-10T21:04:53.006Z,13.80
2024-01-10T21:07:21.331Z,14.80
2024-01-10T21:09:49.595Z,13.70
2024-01-10T21:12:17.701Z,16.70
2024-01-10T21:14:49.004Z,14.70
2024-01-10T21:17:17.220Z,7.70
2024-01-10T21:19:45.756Z,22.60
2024-01-10T21:22:15.165Z,21.10
2024-01-10T21:24:43.536Z,11.20
2024-01-10T21:27:11.818Z,14.40
2024-01-10T21:29:40.134Z,15.70
2024-01-10T21:32:08.844Z,19.70
2024-01-10T21:34:37.387Z,8.80
2024-01-10T21:37:05.834Z,10.20
2024-01-10T21:39:34.280Z,15.90
2024-01-10T21:42:02.433Z,34.60
2024-01-10T21:44:30.773Z,21.60
2024-01-10T21:47:02.644Z,14.90
2024-01-10T21:49:31.487Z,17.30
2024-01-10T21:51:59.961Z,21.40
2024-01-10T21:54:28.211Z,14.40
2024-01-10T21:56:56.274Z,19.80
2024-01-10T21:59:24.485Z,17.90
2024-01-10T22:01:53.009Z,16.40
2024-01-10T22:04:21.448Z,16.30
2024-01-10T22:06:50.093Z,13.90
2024-01-10T22:09:18.438Z,16.30
2024-01-10T22:11:46.657Z,15.90
2024-01-10T22:14:14.908Z,13.60
2024-01-10T22:16:43.065Z,25.20
2024-01-10T22:19:11.300Z,18.90
2024-01-10T22:21:39.617Z,21.00
2024-01-10T22:24:10.657Z,13.60
2024-01-10T22:26:42.233Z,18.30
2024-01-10T22:29:10.704Z,13.20
2024-01-10T22:31:38.948Z,15.70
2024-01-10T22:34:07.308Z,13.90
2024-01-10T22:36:35.804Z,15.00
2024-01-10T22:39:04.830Z,19.40
2024-01-10T22:41:33.120Z,16.80
2024-01-10T22:44:01.406Z,18.90
2024-01-10T22:46:29.635Z,14.70
2024-01-10T22:48:58.491Z,23.40
2024-01-10T22:51:26.788Z,19.00
2024-01-10T22:53:55.141Z,16.00
2024-01-10T22:56:23.455Z,18.30
2024-01-10T22:58:52.158Z,11.90
2024-01-10T23:01:21.816Z,19.90
2024-01-10T23:03:51.064Z,19.40
2024-01-10T23:06:19.439Z,18.30
2024-01-10T23:08:47.826Z,14.50
2024-01-10T23:11:16.242Z,19.50
2024-01-10T23:13:44.437Z,19.80
2024-01-10T23:16:12.565Z,12.00
2024-01-10T23:18:40.797Z,17.50
2024-01-10T23:21:11.925Z,16.40
2024-01-10T23:23:43.380Z,15.30
2024-01-10T23:26:11.960Z,11.00
2024-01-10T23:28:40.129Z,23.90
2024-01-10T23:31:15.931Z,16.00
2024-01-10T23:33:44.878Z,21.50
2024-01-10T23:36:13.203Z,16.10
2024-01-10T23:38:42.274Z,18.00
2024-01-10T23:41:10.404Z,20.30
2024-01-10T23:43:38.705Z,17.30
2024-01-10T23:46:06.970Z,13.40
2024-01-10T23:48:35.158Z,14.90
2024-01-10T23:51:03.520Z,18.20
2024-01-10T23:53:31.860Z,15.00
2024-01-10T23:56:00.224Z,24.90
2024-01-10T23:58:28.541Z,18.50
